KMRY/MRY METAR and TAF weather

Enter ICAO airport designator
Station Type Date Time Source
KMRY METAR 2020/11/25 21:54 UTC NOAA

KMRY 252154Z 31009KT 10SM CLR 14/08 A3019 RMK AO2 SLP236 T01390083


Station Type Date Time Source
KMRY Decoded METAR 2020/11/25 21:54 UTC NOAA

MONTEREY PENINSULA AIRPORT, CA, United States (KMRY) 36-35N 121-51W 66M
Nov 25, 2020 - 04:54 PM EST / 2020.11.25 2154 UTC
Wind: from the NW (310 degrees) at 10 MPH (9 KT):0
Visibility: 10 mile(s):0
Sky conditions: clear
Temperature: 57.0 F (13.9 C)
Dew Point: 46.9 F (8.3 C)
Relative Humidity: 68%
Pressure (altimeter): 30.19 in. Hg (1022 hPa)
ob: KMRY 252154Z 31009KT 10SM CLR 14/08 A3019 RMK AO2 SLP236 T01390083
cycle: 22

Station Type Date Time Source
KMRY TAF 2020/11/25 21:22 UTC NOAA

TAF
AMD KMRY 252120Z 2521/2618 32008KT P6SM FEW013
FM252300 30012KT P6SM SKC
FM260300 28006KT P6SM FEW010
FM260700 VRB03KT P6SM FEW010

Example: see airport list